sensor_id;sensor_type;location;lat;lon;timestamp;temperature;humidity
67093;SHT31;54011;50.772;7.730;2022-11-20T00:01:04;1.13;85.55
67093;SHT31;54011;50.772;7.730;2022-11-20T00:03:30;1.29;85.19
67093;SHT31;54011;50.772;7.730;2022-11-20T00:06:02;1.23;85.46
67093;SHT31;54011;50.772;7.730;2022-11-20T00:08:28;1.23;85.34
67093;SHT31;54011;50.772;7.730;2022-11-20T00:10:54;1.16;85.35
67093;SHT31;54011;50.772;7.730;2022-11-20T00:13:22;0.89;85.87
67093;SHT31;54011;50.772;7.730;2022-11-20T00:15:47;1.01;86.02
67093;SHT31;54011;50.772;7.730;2022-11-20T00:18:13;0.95;86.05
67093;SHT31;54011;50.772;7.730;2022-11-20T00:20:38;1.03;86.25
67093;SHT31;54011;50.772;7.730;2022-11-20T00:23:04;1.15;86.06
67093;SHT31;54011;50.772;7.730;2022-11-20T00:25:31;1.21;85.94
67093;SHT31;54011;50.772;7.730;2022-11-20T00:27:56;1.08;86.42
67093;SHT31;54011;50.772;7.730;2022-11-20T00:30:21;1.03;86.32
67093;SHT31;54011;50.772;7.730;2022-11-20T00:32:47;1.16;86.44
67093;SHT31;54011;50.772;7.730;2022-11-20T00:35:12;1.09;85.68
67093;SHT31;54011;50.772;7.730;2022-11-20T00:37:37;1.15;86.30
67093;SHT31;54011;50.772;7.730;2022-11-20T00:40:03;1.18;85.75
67093;SHT31;54011;50.772;7.730;2022-11-20T00:42:29;0.95;86.66
67093;SHT31;54011;50.772;7.730;2022-11-20T00:44:54;0.84;87.13
67093;SHT31;54011;50.772;7.730;2022-11-20T00:47:19;1.02;86.53
67093;SHT31;54011;50.772;7.730;2022-11-20T00:49:45;0.94;86.52
67093;SHT31;54011;50.772;7.730;2022-11-20T00:52:10;0.91;86.55
67093;SHT31;54011;50.772;7.730;2022-11-20T00:54:35;0.96;86.93
67093;SHT31;54011;50.772;7.730;2022-11-20T00:57:01;1.11;87.19
67093;SHT31;54011;50.772;7.730;2022-11-20T00:59:27;1.06;87.16
67093;SHT31;54011;50.772;7.730;2022-11-20T01:01:52;0.99;86.63
67093;SHT31;54011;50.772;7.730;2022-11-20T01:04:18;1.11;86.56
67093;SHT31;54011;50.772;7.730;2022-11-20T01:06:43;1.19;85.98
67093;SHT31;54011;50.772;7.730;2022-11-20T01:09:13;1.13;85.87
67093;SHT31;54011;50.772;7.730;2022-11-20T01:11:41;1.09;86.09
67093;SHT31;54011;50.772;7.730;2022-11-20T01:14:14;1.22;86.16
67093;SHT31;54011;50.772;7.730;2022-11-20T01:16:51;1.16;85.30
67093;SHT31;54011;50.772;7.730;2022-11-20T01:19:19;1.06;85.54
67093;SHT31;54011;50.772;7.730;2022-11-20T01:21:49;1.15;86.25
67093;SHT31;54011;50.772;7.730;2022-11-20T01:24:16;1.01;86.40
67093;SHT31;54011;50.772;7.730;2022-11-20T01:26:43;1.06;85.59
67093;SHT31;54011;50.772;7.730;2022-11-20T01:29:14;1.05;86.26
67093;SHT31;54011;50.772;7.730;2022-11-20T01:31:40;1.13;85.75
67093;SHT31;54011;50.772;7.730;2022-11-20T01:34:13;1.02;86.02
67093;SHT31;54011;50.772;7.730;2022-11-20T01:36:39;1.09;85.59
67093;SHT31;54011;50.772;7.730;2022-11-20T01:39:07;1.12;85.84
67093;SHT31;54011;50.772;7.730;2022-11-20T01:41:35;1.09;86.07
67093;SHT31;54011;50.772;7.730;2022-11-20T01:44:23;1.11;85.86
67093;SHT31;54011;50.772;7.730;2022-11-20T01:47:07;1.06;85.29
67093;SHT31;54011;50.772;7.730;2022-11-20T01:49:38;0.89;85.91
67093;SHT31;54011;50.772;7.730;2022-11-20T01:52:32;1.11;86.36
67093;SHT31;54011;50.772;7.730;2022-11-20T01:55:09;1.12;85.58
67093;SHT31;54011;50.772;7.730;2022-11-20T01:57:37;0.95;85.91
67093;SHT31;54011;50.772;7.730;2022-11-20T02:00:13;0.96;85.47
67093;SHT31;54011;50.772;7.730;2022-11-20T02:02:41;0.87;86.31
67093;SHT31;54011;50.772;7.730;2022-11-20T02:05:28;1.02;86.22
67093;SHT31;54011;50.772;7.730;2022-11-20T02:07:58;0.96;85.65
67093;SHT31;54011;50.772;7.730;2022-11-20T02:10:26;1.08;85.56
67093;SHT31;54011;50.772;7.730;2022-11-20T02:12:52;1.03;85.64
67093;SHT31;54011;50.772;7.730;2022-11-20T02:15:37;1.11;86.21
67093;SHT31;54011;50.772;7.730;2022-11-20T02:18:04;1.05;85.67
67093;SHT31;54011;50.772;7.730;2022-11-20T02:20:44;0.99;85.73
67093;SHT31;54011;50.772;7.730;2022-11-20T02:23:39;0.88;86.04
67093;SHT31;54011;50.772;7.730;2022-11-20T02:26:09;0.88;86.29
67093;SHT31;54011;50.772;7.730;2022-11-20T02:28:35;0.96;86.60
67093;SHT31;54011;50.772;7.730;2022-11-20T02:31:01;1.08;86.56
67093;SHT31;54011;50.772;7.730;2022-11-20T02:33:27;1.11;85.80
67093;SHT31;54011;50.772;7.730;2022-11-20T02:35:52;1.08;85.72
67093;SHT31;54011;50.772;7.730;2022-11-20T02:38:18;1.16;86.44
67093;SHT31;54011;50.772;7.730;2022-11-20T02:40:43;1.12;85.42
67093;SHT31;54011;50.772;7.730;2022-11-20T02:43:09;1.03;85.84
67093;SHT31;54011;50.772;7.730;2022-11-20T02:45:35;1.03;86.54
67093;SHT31;54011;50.772;7.730;2022-11-20T02:48:00;1.13;85.86
67093;SHT31;54011;50.772;7.730;2022-11-20T02:54:07;1.21;85.30
67093;SHT31;54011;50.772;7.730;2022-11-20T02:56:32;0.92;85.51
67093;SHT31;54011;50.772;7.730;2022-11-20T02:58:57;0.99;85.93
67093;SHT31;54011;50.772;7.730;2022-11-20T03:01:23;1.03;86.20
67093;SHT31;54011;50.772;7.730;2022-11-20T03:03:48;1.03;86.04
67093;SHT31;54011;50.772;7.730;2022-11-20T03:06:15;1.01;86.48
67093;SHT31;54011;50.772;7.730;2022-11-20T03:08:42;1.23;86.98
67093;SHT31;54011;50.772;7.730;2022-11-20T03:11:08;1.13;86.37
67093;SHT31;54011;50.772;7.730;2022-11-20T03:13:34;1.19;86.27
67093;SHT31;54011;50.772;7.730;2022-11-20T03:16:12;1.31;86.36
67093;SHT31;54011;50.772;7.730;2022-11-20T03:18:39;1.21;85.30
67093;SHT31;54011;50.772;7.730;2022-11-20T03:21:05;1.22;86.35
67093;SHT31;54011;50.772;7.730;2022-11-20T03:23:31;1.33;86.26
67093;SHT31;54011;50.772;7.730;2022-11-20T03:26:08;1.19;85.35
67093;SHT31;54011;50.772;7.730;2022-11-20T03:28:33;1.19;85.72
67093;SHT31;54011;50.772;7.730;2022-11-20T03:31:05;1.13;85.67
67093;SHT31;54011;50.772;7.730;2022-11-20T03:33:31;1.25;84.86
67093;SHT31;54011;50.772;7.730;2022-11-20T03:36:01;1.19;85.22
67093;SHT31;54011;50.772;7.730;2022-11-20T03:38:29;1.16;85.20
67093;SHT31;54011;50.772;7.730;2022-11-20T03:41:29;1.16;85.32
67093;SHT31;54011;50.772;7.730;2022-11-20T03:43:58;1.33;86.04
67093;SHT31;54011;50.772;7.730;2022-11-20T03:46:26;1.28;86.59
67093;SHT31;54011;50.772;7.730;2022-11-20T03:48:53;1.38;85.36
67093;SHT31;54011;50.772;7.730;2022-11-20T03:51:27;1.38;85.50
67093;SHT31;54011;50.772;7.730;2022-11-20T03:53:55;1.26;85.51
67093;SHT31;54011;50.772;7.730;2022-11-20T03:56:30;1.35;86.28
67093;SHT31;54011;50.772;7.730;2022-11-20T03:58:56;1.15;86.04
67093;SHT31;54011;50.772;7.730;2022-11-20T04:01:25;1.22;85.76
67093;SHT31;54011;50.772;7.730;2022-11-20T04:03:55;1.09;86.68
67093;SHT31;54011;50.772;7.730;2022-11-20T04:06:25;1.21;86.35
67093;SHT31;54011;50.772;7.730;2022-11-20T04:08:51;1.31;86.12
67093;SHT31;54011;50.772;7.730;2022-11-20T04:11:28;1.36;86.01
67093;SHT31;54011;50.772;7.730;2022-11-20T04:13:56;1.46;85.65
67093;SHT31;54011;50.772;7.730;2022-11-20T04:16:24;1.46;86.27
67093;SHT31;54011;50.772;7.730;2022-11-20T04:18:54;1.25;86.21
67093;SHT31;54011;50.772;7.730;2022-11-20T04:21:21;1.25;86.46
67093;SHT31;54011;50.772;7.730;2022-11-20T04:23:49;1.28;86.55
67093;SHT31;54011;50.772;7.730;2022-11-20T04:26:17;1.40;86.14
67093;SHT31;54011;50.772;7.730;2022-11-20T04:28:43;1.42;85.95
67093;SHT31;54011;50.772;7.730;2022-11-20T04:31:11;1.35;86.79
67093;SHT31;54011;50.772;7.730;2022-11-20T04:33:37;1.29;86.62
67093;SHT31;54011;50.772;7.730;2022-11-20T04:36:05;1.33;86.82
67093;SHT31;54011;50.772;7.730;2022-11-20T04:38:32;1.25;87.20
67093;SHT31;54011;50.772;7.730;2022-11-20T04:40:59;1.33;86.87
67093;SHT31;54011;50.772;7.730;2022-11-20T04:43:24;1.32;87.17
67093;SHT31;54011;50.772;7.730;2022-11-20T04:45:53;1.23;87.68
67093;SHT31;54011;50.772;7.730;2022-11-20T04:48:19;1.26;88.29
67093;SHT31;54011;50.772;7.730;2022-11-20T04:50:45;1.23;87.84
67093;SHT31;54011;50.772;7.730;2022-11-20T04:53:10;1.36;87.78
67093;SHT31;54011;50.772;7.730;2022-11-20T04:55:36;1.22;88.60
67093;SHT31;54011;50.772;7.730;2022-11-20T04:58:02;1.36;88.38
67093;SHT31;54011;50.772;7.730;2022-11-20T05:00:27;1.43;88.40
67093;SHT31;54011;50.772;7.730;2022-11-20T05:02:52;1.40;88.55
67093;SHT31;54011;50.772;7.730;2022-11-20T05:05:18;1.44;89.04
67093;SHT31;54011;50.772;7.730;2022-11-20T05:07:43;1.56;88.58
67093;SHT31;54011;50.772;7.730;2022-11-20T05:10:09;1.50;88.98
67093;SHT31;54011;50.772;7.730;2022-11-20T05:12:34;1.44;88.77
67093;SHT31;54011;50.772;7.730;2022-11-20T05:14:59;1.44;88.68
67093;SHT31;54011;50.772;7.730;2022-11-20T05:17:27;1.29;89.42
67093;SHT31;54011;50.772;7.730;2022-11-20T05:19:52;1.53;88.67
67093;SHT31;54011;50.772;7.730;2022-11-20T05:22:17;1.71;87.72
67093;SHT31;54011;50.772;7.730;2022-11-20T05:24:43;1.52;88.66
67093;SHT31;54011;50.772;7.730;2022-11-20T05:27:10;1.60;89.04
67093;SHT31;54011;50.772;7.730;2022-11-20T05:29:35;1.67;88.52
67093;SHT31;54011;50.772;7.730;2022-11-20T05:32:00;1.57;88.99
67093;SHT31;54011;50.772;7.730;2022-11-20T05:34:27;1.68;88.18
67093;SHT31;54011;50.772;7.730;2022-11-20T05:36:52;1.60;89.03
67093;SHT31;54011;50.772;7.730;2022-11-20T05:39:17;1.64;89.18
67093;SHT31;54011;50.772;7.730;2022-11-20T05:41:43;1.74;88.49
67093;SHT31;54011;50.772;7.730;2022-11-20T05:44:12;1.62;89.79
67093;SHT31;54011;50.772;7.730;2022-11-20T05:46:37;1.68;89.03
67093;SHT31;54011;50.772;7.730;2022-11-20T05:49:03;1.60;88.95
67093;SHT31;54011;50.772;7.730;2022-11-20T05:51:30;1.56;88.89
67093;SHT31;54011;50.772;7.730;2022-11-20T05:53:59;1.59;89.65
67093;SHT31;54011;50.772;7.730;2022-11-20T05:56:26;1.57;88.29
67093;SHT31;54011;50.772;7.730;2022-11-20T05:58:51;1.60;89.20
67093;SHT31;54011;50.772;7.730;2022-11-20T06:01:23;1.63;89.25
67093;SHT31;54011;50.772;7.730;2022-11-20T06:03:49;1.54;88.83
67093;SHT31;54011;50.772;7.730;2022-11-20T06:06:17;1.63;88.02
67093;SHT31;54011;50.772;7.730;2022-11-20T06:08:44;1.67;88.02
67093;SHT31;54011;50.772;7.730;2022-11-20T06:11:12;1.59;88.54
67093;SHT31;54011;50.772;7.730;2022-11-20T06:13:38;1.54;88.80
67093;SHT31;54011;50.772;7.730;2022-11-20T06:16:04;1.52;89.15
67093;SHT31;54011;50.772;7.730;2022-11-20T06:18:30;1.35;88.73
67093;SHT31;54011;50.772;7.730;2022-11-20T06:21:09;1.44;88.92
67093;SHT31;54011;50.772;7.730;2022-11-20T06:23:35;1.50;89.18
67093;SHT31;54011;50.772;7.730;2022-11-20T06:26:07;1.52;89.04
67093;SHT31;54011;50.772;7.730;2022-11-20T06:28:33;1.57;89.41
67093;SHT31;54011;50.772;7.730;2022-11-20T06:31:00;1.70;88.61
67093;SHT31;54011;50.772;7.730;2022-11-20T06:33:28;1.74;88.23
67093;SHT31;54011;50.772;7.730;2022-11-20T06:35:57;1.68;89.01
67093;SHT31;54011;50.772;7.730;2022-11-20T06:38:24;1.63;89.43
67093;SHT31;54011;50.772;7.730;2022-11-20T06:40:49;1.53;89.69
67093;SHT31;54011;50.772;7.730;2022-11-20T06:43:16;1.56;89.27
67093;SHT31;54011;50.772;7.730;2022-11-20T06:45:41;1.73;88.58
67093;SHT31;54011;50.772;7.730;2022-11-20T06:48:09;1.59;89.47
67093;SHT31;54011;50.772;7.730;2022-11-20T06:50:36;1.66;89.30
67093;SHT31;54011;50.772;7.730;2022-11-20T06:53:02;1.53;89.25
67093;SHT31;54011;50.772;7.730;2022-11-20T06:55:29;1.56;89.68
67093;SHT31;54011;50.772;7.730;2022-11-20T06:57:54;1.56;89.60
67093;SHT31;54011;50.772;7.730;2022-11-20T07:00:20;1.57;89.77
67093;SHT31;54011;50.772;7.730;2022-11-20T07:02:45;1.60;89.28
67093;SHT31;54011;50.772;7.730;2022-11-20T07:05:11;1.44;89.62
67093;SHT31;54011;50.772;7.730;2022-11-20T07:07:36;1.50;89.81
67093;SHT31;54011;50.772;7.730;2022-11-20T07:10:01;1.43;89.95
67093;SHT31;54011;50.772;7.730;2022-11-20T07:12:30;1.49;89.18
67093;SHT31;54011;50.772;7.730;2022-11-20T07:14:55;1.53;89.31
67093;SHT31;54011;50.772;7.730;2022-11-20T07:17:22;1.56;89.02
67093;SHT31;54011;50.772;7.730;2022-11-20T07:19:49;1.56;89.19
67093;SHT31;54011;50.772;7.730;2022-11-20T07:22:14;1.70;88.82
67093;SHT31;54011;50.772;7.730;2022-11-20T07:24:39;1.74;89.54
67093;SHT31;54011;50.772;7.730;2022-11-20T07:27:05;1.67;89.00
67093;SHT31;54011;50.772;7.730;2022-11-20T07:29:32;1.74;88.73
67093;SHT31;54011;50.772;7.730;2022-11-20T07:31:57;1.71;88.73
67093;SHT31;54011;50.772;7.730;2022-11-20T07:34:24;1.71;88.94
67093;SHT31;54011;50.772;7.730;2022-11-20T07:36:51;1.85;88.79
67093;SHT31;54011;50.772;7.730;2022-11-20T07:39:17;1.90;88.30
67093;SHT31;54011;50.772;7.730;2022-11-20T07:41:44;1.91;87.90
67093;SHT31;54011;50.772;7.730;2022-11-20T07:44:09;1.94;87.63
67093;SHT31;54011;50.772;7.730;2022-11-20T07:46:34;1.80;87.85
67093;SHT31;54011;50.772;7.730;2022-11-20T07:49:00;1.83;88.39
67093;SHT31;54011;50.772;7.730;2022-11-20T07:51:28;2.05;88.19
67093;SHT31;54011;50.772;7.730;2022-11-20T07:53:54;2.01;88.29
67093;SHT31;54011;50.772;7.730;2022-11-20T07:56:20;2.03;88.73
67093;SHT31;54011;50.772;7.730;2022-11-20T07:58:46;2.10;88.60
67093;SHT31;54011;50.772;7.730;2022-11-20T08:01:11;1.91;88.00
67093;SHT31;54011;50.772;7.730;2022-11-20T08:03:39;1.94;88.08
67093;SHT31;54011;50.772;7.730;2022-11-20T08:06:10;2.11;88.17
67093;SHT31;54011;50.772;7.730;2022-11-20T08:08:38;2.03;88.81
67093;SHT31;54011;50.772;7.730;2022-11-20T08:11:05;2.15;88.14
67093;SHT31;54011;50.772;7.730;2022-11-20T08:13:50;2.15;88.43
67093;SHT31;54011;50.772;7.730;2022-11-20T08:16:39;2.11;88.66
67093;SHT31;54011;50.772;7.730;2022-11-20T08:19:06;2.32;88.61
67093;SHT31;54011;50.772;7.730;2022-11-20T08:21:34;2.35;88.01
67093;SHT31;54011;50.772;7.730;2022-11-20T08:24:01;2.41;87.98
67093;SHT31;54011;50.772;7.730;2022-11-20T08:26:26;2.20;88.41
67093;SHT31;54011;50.772;7.730;2022-11-20T08:28:55;2.24;88.65
67093;SHT31;54011;50.772;7.730;2022-11-20T08:31:23;2.36;88.54
67093;SHT31;54011;50.772;7.730;2022-11-20T08:33:49;2.48;87.99
67093;SHT31;54011;50.772;7.730;2022-11-20T08:36:16;2.43;87.82
67093;SHT31;54011;50.772;7.730;2022-11-20T08:38:57;2.50;87.83
67093;SHT31;54011;50.772;7.730;2022-11-20T08:41:29;2.69;87.57
67093;SHT31;54011;50.772;7.730;2022-11-20T08:44:05;2.77;87.63
67093;SHT31;54011;50.772;7.730;2022-11-20T08:46:34;2.80;87.14
67093;SHT31;54011;50.772;7.730;2022-11-20T08:49:05;2.99;86.53
67093;SHT31;54011;50.772;7.730;2022-11-20T08:51:33;3.13;85.91
67093;SHT31;54011;50.772;7.730;2022-11-20T08:53:58;3.01;86.48
67093;SHT31;54011;50.772;7.730;2022-11-20T08:56:27;2.92;86.56
67093;SHT31;54011;50.772;7.730;2022-11-20T08:58:55;2.79;87.03
67093;SHT31;54011;50.772;7.730;2022-11-20T09:01:22;2.77;87.14
67093;SHT31;54011;50.772;7.730;2022-11-20T09:03:49;2.72;87.12
67093;SHT31;54011;50.772;7.730;2022-11-20T09:06:15;2.86;86.25
67093;SHT31;54011;50.772;7.730;2022-11-20T09:08:41;2.94;86.37
67093;SHT31;54011;50.772;7.730;2022-11-20T09:11:08;2.80;87.16
67093;SHT31;54011;50.772;7.730;2022-11-20T09:13:35;3.07;86.59
67093;SHT31;54011;50.772;7.730;2022-11-20T09:16:07;3.15;85.96
67093;SHT31;54011;50.772;7.730;2022-11-20T09:18:33;3.13;86.41
67093;SHT31;54011;50.772;7.730;2022-11-20T09:21:02;3.24;85.64
67093;SHT31;54011;50.772;7.730;2022-11-20T09:23:35;3.27;85.12
67093;SHT31;54011;50.772;7.730;2022-11-20T09:26:06;3.23;85.76
67093;SHT31;54011;50.772;7.730;2022-11-20T09:28:35;3.15;86.31
67093;SHT31;54011;50.772;7.730;2022-11-20T09:31:06;3.30;86.55
67093;SHT31;54011;50.772;7.730;2022-11-20T09:33:32;3.59;83.54
67093;SHT31;54011;50.772;7.730;2022-11-20T09:35:58;3.59;83.71
67093;SHT31;54011;50.772;7.730;2022-11-20T09:38:25;3.39;84.43
67093;SHT31;54011;50.772;7.730;2022-11-20T09:41:02;3.50;84.11
67093;SHT31;54011;50.772;7.730;2022-11-20T09:43:50;3.41;83.97
67093;SHT31;54011;50.772;7.730;2022-11-20T09:52:16;3.78;83.87
67093;SHT31;54011;50.772;7.730;2022-11-20T09:55:01;3.69;84.46
67093;SHT31;54011;50.772;7.730;2022-11-20T09:57:42;3.62;84.36
67093;SHT31;54011;50.772;7.730;2022-11-20T10:00:14;3.62;84.32
67093;SHT31;54011;50.772;7.730;2022-11-20T10:02:44;3.30;86.10
67093;SHT31;54011;50.772;7.730;2022-11-20T10:05:30;3.56;85.36
67093;SHT31;54011;50.772;7.730;2022-11-20T10:08:21;3.69;84.22
67093;SHT31;54011;50.772;7.730;2022-11-20T10:11:02;3.68;84.41
67093;SHT31;54011;50.772;7.730;2022-11-20T10:13:39;3.73;84.36
67093;SHT31;54011;50.772;7.730;2022-11-20T10:16:26;3.86;85.06
67093;SHT31;54011;50.772;7.730;2022-11-20T10:25:06;3.73;83.99
67093;SHT31;54011;50.772;7.730;2022-11-20T10:28:18;3.62;84.95
67093;SHT31;54011;50.772;7.730;2022-11-20T10:30:55;3.56;85.84
67093;SHT31;54011;50.772;7.730;2022-11-20T10:33:23;3.58;85.19
67093;SHT31;54011;50.772;7.730;2022-11-20T10:38:39;3.78;85.41
67093;SHT31;54011;50.772;7.730;2022-11-20T10:41:07;4.00;84.65
67093;SHT31;54011;50.772;7.730;2022-11-20T10:44:21;3.92;85.04
67093;SHT31;54011;50.772;7.730;2022-11-20T10:47:14;3.81;84.94
67093;SHT31;54011;50.772;7.730;2022-11-20T10:49:43;4.06;84.05
67093;SHT31;54011;50.772;7.730;2022-11-20T11:00:24;4.43;84.54
67093;SHT31;54011;50.772;7.730;2022-11-20T11:02:51;4.18;83.82
67093;SHT31;54011;50.772;7.730;2022-11-20T11:07:50;4.21;84.44
67093;SHT31;54011;50.772;7.730;2022-11-20T11:10:20;4.40;83.60
67093;SHT31;54011;50.772;7.730;2022-11-20T11:12:48;4.33;83.78
67093;SHT31;54011;50.772;7.730;2022-11-20T11:15:39;4.45;83.97
67093;SHT31;54011;50.772;7.730;2022-11-20T11:18:08;4.62;82.55
67093;SHT31;54011;50.772;7.730;2022-11-20T11:20:34;4.44;83.11
67093;SHT31;54011;50.772;7.730;2022-11-20T11:23:00;4.45;83.31
67093;SHT31;54011;50.772;7.730;2022-11-20T11:25:36;4.17;85.04
67093;SHT31;54011;50.772;7.730;2022-11-20T11:30:43;4.43;84.66
67093;SHT31;54011;50.772;7.730;2022-11-20T11:33:12;4.54;84.83
67093;SHT31;54011;50.772;7.730;2022-11-20T11:35:53;4.69;84.34
67093;SHT31;54011;50.772;7.730;2022-11-20T11:38:36;4.71;84.08
67093;SHT31;54011;50.772;7.730;2022-11-20T11:41:04;4.74;84.75
67093;SHT31;54011;50.772;7.730;2022-11-20T11:43:35;4.74;83.76
67093;SHT31;54011;50.772;7.730;2022-11-20T11:49:01;4.60;84.39
67093;SHT31;54011;50.772;7.730;2022-11-20T11:51:41;4.37;85.08
67093;SHT31;54011;50.772;7.730;2022-11-20T11:54:30;4.36;85.97
67093;SHT31;54011;50.772;7.730;2022-11-20T11:57:01;4.51;84.96
67093;SHT31;54011;50.772;7.730;2022-11-20T11:59:47;4.54;85.15
67093;SHT31;54011;50.772;7.730;2022-11-20T12:10:48;4.96;84.04
67093;SHT31;54011;50.772;7.730;2022-11-20T12:15:49;4.99;83.84
67093;SHT31;54011;50.772;7.730;2022-11-20T12:18:19;4.72;84.62
67093;SHT31;54011;50.772;7.730;2022-11-20T12:20:52;4.72;84.47
67093;SHT31;54011;50.772;7.730;2022-11-20T12:23:42;4.91;84.71
67093;SHT31;54011;50.772;7.730;2022-11-20T12:29:43;4.91;83.36
67093;SHT31;54011;50.772;7.730;2022-11-20T12:37:23;4.89;84.69
67093;SHT31;54011;50.772;7.730;2022-11-20T12:39:55;4.97;85.35
67093;SHT31;54011;50.772;7.730;2022-11-20T12:45:51;5.00;82.98
67093;SHT31;54011;50.772;7.730;2022-11-20T13:01:51;5.44;82.15
67093;SHT31;54011;50.772;7.730;2022-11-20T13:04:29;5.37;83.01
67093;SHT31;54011;50.772;7.730;2022-11-20T13:06:58;5.39;83.45
67093;SHT31;54011;50.772;7.730;2022-11-20T13:09:25;5.30;83.23
67093;SHT31;54011;50.772;7.730;2022-11-20T13:12:00;5.23;84.83
67093;SHT31;54011;50.772;7.730;2022-11-20T13:14:31;5.15;85.42
67093;SHT31;54011;50.772;7.730;2022-11-20T13:17:17;5.00;86.86
67093;SHT31;54011;50.772;7.730;2022-11-20T13:19:52;5.20;86.62
67093;SHT31;54011;50.772;7.730;2022-11-20T13:22:41;5.26;86.36
67093;SHT31;54011;50.772;7.730;2022-11-20T13:27:55;5.37;86.30
67093;SHT31;54011;50.772;7.730;2022-11-20T13:30:28;5.29;86.11
67093;SHT31;54011;50.772;7.730;2022-11-20T13:33:06;5.27;86.54
67093;SHT31;54011;50.772;7.730;2022-11-20T13:35:35;5.26;86.50
67093;SHT31;54011;50.772;7.730;2022-11-20T13:38:10;5.18;86.87
67093;SHT31;54011;50.772;7.730;2022-11-20T13:40:50;5.25;86.28
67093;SHT31;54011;50.772;7.730;2022-11-20T13:43:28;5.39;86.14
67093;SHT31;54011;50.772;7.730;2022-11-20T13:46:06;5.26;87.13
67093;SHT31;54011;50.772;7.730;2022-11-20T13:48:41;5.43;86.62
67093;SHT31;54011;50.772;7.730;2022-11-20T13:51:47;5.48;86.42
67093;SHT31;54011;50.772;7.730;2022-11-20T14:02:36;5.47;85.93
67093;SHT31;54011;50.772;7.730;2022-11-20T14:05:05;5.63;86.67
67093;SHT31;54011;50.772;7.730;2022-11-20T14:07:41;5.56;86.69
67093;SHT31;54011;50.772;7.730;2022-11-20T14:10:26;5.63;87.24
67093;SHT31;54011;50.772;7.730;2022-11-20T14:12:51;5.65;87.37
67093;SHT31;54011;50.772;7.730;2022-11-20T14:15:31;5.67;87.42
67093;SHT31;54011;50.772;7.730;2022-11-20T14:17:57;5.75;87.34
67093;SHT31;54011;50.772;7.730;2022-11-20T14:20:28;5.61;88.00
67093;SHT31;54011;50.772;7.730;2022-11-20T14:22:54;5.75;88.01
67093;SHT31;54011;50.772;7.730;2022-11-20T14:25:25;5.44;88.06
67093;SHT31;54011;50.772;7.730;2022-11-20T14:27:54;5.58;87.59
67093;SHT31;54011;50.772;7.730;2022-11-20T14:30:27;5.51;88.18
67093;SHT31;54011;50.772;7.730;2022-11-20T14:32:57;5.34;88.84
67093;SHT31;54011;50.772;7.730;2022-11-20T14:35:30;5.20;89.28
67093;SHT31;54011;50.772;7.730;2022-11-20T14:37:57;5.23;89.29
67093;SHT31;54011;50.772;7.730;2022-11-20T14:40:32;5.22;89.94
67093;SHT31;54011;50.772;7.730;2022-11-20T14:43:01;5.19;90.10
67093;SHT31;54011;50.772;7.730;2022-11-20T14:45:27;5.29;89.81
67093;SHT31;54011;50.772;7.730;2022-11-20T14:47:55;5.27;89.78
67093;SHT31;54011;50.772;7.730;2022-11-20T14:50:29;5.33;89.86
67093;SHT31;54011;50.772;7.730;2022-11-20T14:52:56;5.36;89.95
67093;SHT31;54011;50.772;7.730;2022-11-20T14:55:37;5.47;89.36
67093;SHT31;54011;50.772;7.730;2022-11-20T14:58:05;5.39;89.24
67093;SHT31;54011;50.772;7.730;2022-11-20T15:00:34;5.50;89.40
67093;SHT31;54011;50.772;7.730;2022-11-20T15:03:15;5.56;87.98
67093;SHT31;54011;50.772;7.730;2022-11-20T15:05:46;5.54;88.39
67093;SHT31;54011;50.772;7.730;2022-11-20T15:08:13;5.51;88.68
67093;SHT31;54011;50.772;7.730;2022-11-20T15:10:38;5.46;89.00
67093;SHT31;54011;50.772;7.730;2022-11-20T15:13:55;5.44;88.88
67093;SHT31;54011;50.772;7.730;2022-11-20T15:16:03;5.46;90.08
67093;SHT31;54011;50.772;7.730;2022-11-20T15:18:31;5.57;88.92
67093;SHT31;54011;50.772;7.730;2022-11-20T15:21:00;5.48;89.58
67093;SHT31;54011;50.772;7.730;2022-11-20T15:23:27;5.54;89.20
67093;SHT31;54011;50.772;7.730;2022-11-20T15:25:52;5.48;90.02
67093;SHT31;54011;50.772;7.730;2022-11-20T15:28:21;5.50;90.17
67093;SHT31;54011;50.772;7.730;2022-11-20T15:30:49;5.51;90.07
67093;SHT31;54011;50.772;7.730;2022-11-20T15:33:17;5.50;90.44
67093;SHT31;54011;50.772;7.730;2022-11-20T15:35:43;5.48;90.78
67093;SHT31;54011;50.772;7.730;2022-11-20T15:38:09;5.57;90.86
67093;SHT31;54011;50.772;7.730;2022-11-20T15:40:35;5.56;90.44
67093;SHT31;54011;50.772;7.730;2022-11-20T15:43:01;5.46;91.23
67093;SHT31;54011;50.772;7.730;2022-11-20T15:45:48;5.33;91.69
67093;SHT31;54011;50.772;7.730;2022-11-20T15:48:23;5.43;90.40
67093;SHT31;54011;50.772;7.730;2022-11-20T15:53:36;5.22;90.23
67093;SHT31;54011;50.772;7.730;2022-11-20T15:56:02;5.11;90.85
67093;SHT31;54011;50.772;7.730;2022-11-20T15:58:28;4.92;91.96
67093;SHT31;54011;50.772;7.730;2022-11-20T16:00:54;4.97;92.14
67093;SHT31;54011;50.772;7.730;2022-11-20T16:03:20;4.95;92.72
67093;SHT31;54011;50.772;7.730;2022-11-20T16:05:46;4.91;93.15
67093;SHT31;54011;50.772;7.730;2022-11-20T16:08:13;5.05;92.59
67093;SHT31;54011;50.772;7.730;2022-11-20T16:10:39;4.86;92.87
67093;SHT31;54011;50.772;7.730;2022-11-20T16:13:15;4.81;93.38
67093;SHT31;54011;50.772;7.730;2022-11-20T16:16:05;4.64;94.66
67093;SHT31;54011;50.772;7.730;2022-11-20T16:18:32;4.72;95.11
67093;SHT31;54011;50.772;7.730;2022-11-20T16:20:57;5.02;94.82
67093;SHT31;54011;50.772;7.730;2022-11-20T16:23:23;5.19;95.30
67093;SHT31;54011;50.772;7.730;2022-11-20T16:25:54;5.27;95.32
67093;SHT31;54011;50.772;7.730;2022-11-20T16:28:20;5.40;94.92
67093;SHT31;54011;50.772;7.730;2022-11-20T16:30:47;5.39;95.09
67093;SHT31;54011;50.772;7.730;2022-11-20T16:33:15;5.43;95.32
67093;SHT31;54011;50.772;7.730;2022-11-20T16:35:41;5.47;95.24
67093;SHT31;54011;50.772;7.730;2022-11-20T16:38:06;5.53;94.99
67093;SHT31;54011;50.772;7.730;2022-11-20T16:40:32;5.48;95.11
67093;SHT31;54011;50.772;7.730;2022-11-20T16:43:06;5.44;95.27
67093;SHT31;54011;50.772;7.730;2022-11-20T16:45:32;5.47;95.15
67093;SHT31;54011;50.772;7.730;2022-11-20T16:47:58;5.46;95.06
67093;SHT31;54011;50.772;7.730;2022-11-20T16:50:24;5.44;94.83
67093;SHT31;54011;50.772;7.730;2022-11-20T16:52:49;5.43;94.43
67093;SHT31;54011;50.772;7.730;2022-11-20T16:55:14;5.42;94.13
67093;SHT31;54011;50.772;7.730;2022-11-20T16:57:41;5.37;93.75
67093;SHT31;54011;50.772;7.730;2022-11-20T17:00:07;5.30;93.84
67093;SHT31;54011;50.772;7.730;2022-11-20T17:02:36;5.25;94.13
67093;SHT31;54011;50.772;7.730;2022-11-20T17:05:02;5.27;94.62
67093;SHT31;54011;50.772;7.730;2022-11-20T17:07:30;5.25;95.11
67093;SHT31;54011;50.772;7.730;2022-11-20T17:09:56;5.26;95.17
67093;SHT31;54011;50.772;7.730;2022-11-20T17:12:23;5.26;95.09
67093;SHT31;54011;50.772;7.730;2022-11-20T17:14:49;5.29;94.85
67093;SHT31;54011;50.772;7.730;2022-11-20T17:17:15;5.23;95.06
67093;SHT31;54011;50.772;7.730;2022-11-20T17:19:41;5.19;94.91
67093;SHT31;54011;50.772;7.730;2022-11-20T17:22:07;5.16;95.26
67093;SHT31;54011;50.772;7.730;2022-11-20T17:24:34;5.16;95.14
67093;SHT31;54011;50.772;7.730;2022-11-20T17:26:59;5.18;95.13